createdAt,value
2022-12-27T00:01:21.694Z,77.16
2022-12-27T00:03:44.129Z,76.95
2022-12-27T00:06:20.358Z,77.16
2022-12-27T00:08:43.603Z,77.17
2022-12-27T00:11:13.029Z,76.92
2022-12-27T00:13:34.915Z,77.24
2022-12-27T00:16:04.553Z,77.28
2022-12-27T00:18:26.425Z,77.68
2022-12-27T00:20:48.267Z,77.41
2022-12-27T00:23:10.207Z,77.45
2022-12-27T00:25:32.109Z,77.27
2022-12-27T00:27:54.020Z,77.20
2022-12-27T00:30:15.912Z,77.85
2022-12-27T00:32:37.781Z,77.85
2022-12-27T00:34:59.651Z,77.76
2022-12-27T00:37:21.606Z,77.69
2022-12-27T00:39:43.504Z,77.55
2022-12-27T00:42:05.489Z,77.74
2022-12-27T00:44:27.290Z,77.84
2022-12-27T00:46:49.168Z,78.55
2022-12-27T00:49:11.280Z,77.51
2022-12-27T00:51:33.234Z,77.99
2022-12-27T00:53:56.027Z,78.05
2022-12-27T00:56:22.554Z,77.96
2022-12-27T00:58:45.142Z,78.09
2022-12-27T01:01:15.449Z,78.37
2022-12-27T01:03:38.281Z,78.04
2022-12-27T01:06:14.056Z,78.13
2022-12-27T01:08:36.471Z,78.42
2022-12-27T01:10:58.417Z,78.66
2022-12-27T01:13:20.296Z,78.37
2022-12-27T01:15:42.848Z,78.85
2022-12-27T01:18:04.704Z,78.63
2022-12-27T01:20:26.709Z,78.77
2022-12-27T01:22:48.725Z,79.09
2022-12-27T01:25:10.854Z,78.62
2022-12-27T01:27:32.764Z,78.92
2022-12-27T01:29:54.624Z,78.53
2022-12-27T01:32:16.436Z,78.94
2022-12-27T01:34:38.260Z,78.77
2022-12-27T01:37:01.372Z,78.82
2022-12-27T01:39:23.587Z,78.90
2022-12-27T01:42:20.747Z,79.32
2022-12-27T01:44:43.785Z,79.30
2022-12-27T01:47:19.529Z,79.22
2022-12-27T01:49:54.372Z,79.29
2022-12-27T01:52:16.185Z,79.24
2022-12-27T01:54:38.977Z,79.17
2022-12-27T01:57:01.697Z,79.21
2022-12-27T01:59:25.149Z,79.45
2022-12-27T02:01:49.534Z,79.65
2022-12-27T02:04:18.904Z,79.50
2022-12-27T02:06:42.082Z,79.88
2022-12-27T02:09:23.218Z,79.72
2022-12-27T02:11:52.698Z,79.76
2022-12-27T02:14:26.084Z,79.64
2022-12-27T02:16:51.746Z,79.86
2022-12-27T02:19:41.090Z,79.50
2022-12-27T02:23:12.297Z,79.44
2022-12-27T02:26:12.601Z,80.02
2022-12-27T02:29:11.450Z,79.75
2022-12-27T02:31:43.718Z,80.32
2022-12-27T02:34:16.347Z,79.93
2022-12-27T02:36:42.094Z,80.03
2022-12-27T02:39:05.836Z,80.31
2022-12-27T02:41:50.170Z,80.58
2022-12-27T02:44:30.901Z,80.59
2022-12-27T02:47:11.664Z,80.83
2022-12-27T02:49:59.532Z,80.97
2022-12-27T02:52:51.985Z,80.99
2022-12-27T02:56:11.377Z,80.39
2022-12-27T02:58:49.838Z,80.55
2022-12-27T03:01:33.412Z,80.39
2022-12-27T03:04:32.963Z,80.26
2022-12-27T03:07:31.777Z,80.73
2022-12-27T03:10:31.109Z,80.54
2022-12-27T03:13:38.740Z,80.91
2022-12-27T03:16:37.867Z,80.61
2022-12-27T03:19:41.945Z,81.20
2022-12-27T03:22:24.877Z,81.15
2022-12-27T03:25:06.173Z,80.55
2022-12-27T03:27:35.207Z,80.61
2022-12-27T03:30:20.973Z,80.17
2022-12-27T03:33:15.455Z,80.36
2022-12-27T03:36:31.764Z,80.07
2022-12-27T03:39:24.527Z,80.15
2022-12-27T03:42:19.025Z,80.45
2022-12-27T03:44:41.006Z,80.52
2022-12-27T03:47:24.760Z,80.75
2022-12-27T03:50:15.653Z,80.71
2022-12-27T03:52:57.874Z,80.84
2022-12-27T03:55:20.119Z,81.13
2022-12-27T03:57:42.549Z,81.17
2022-12-27T04:00:06.753Z,81.21
2022-12-27T04:02:35.278Z,81.33
2022-12-27T04:04:57.343Z,81.54
2022-12-27T04:07:19.718Z,81.37
2022-12-27T04:10:02.304Z,81.93
2022-12-27T04:12:43.103Z,82.03
2022-12-27T04:15:23.703Z,81.65
2022-12-27T04:18:05.051Z,81.65
2022-12-27T04:20:45.318Z,81.98
2022-12-27T04:23:26.688Z,81.66
2022-12-27T04:26:07.174Z,81.82
2022-12-27T04:28:48.132Z,82.30
2022-12-27T04:31:29.626Z,82.17
2022-12-27T04:34:09.965Z,82.14
2022-12-27T04:36:32.182Z,81.95
2022-12-27T04:38:54.252Z,82.48
2022-12-27T04:41:34.580Z,82.91
2022-12-27T04:44:15.029Z,83.34
2022-12-27T04:46:55.315Z,83.51
2022-12-27T04:49:42.800Z,83.35
2022-12-27T04:52:41.293Z,83.62
2022-12-27T04:55:32.656Z,83.59
2022-12-27T04:57:56.530Z,83.77
2022-12-27T05:00:39.358Z,83.83
2022-12-27T05:03:06.441Z,84.26
2022-12-27T05:05:28.608Z,83.61
2022-12-27T05:08:09.991Z,83.45
2022-12-27T05:10:50.393Z,83.69
2022-12-27T05:13:32.409Z,83.97
2022-12-27T05:15:54.258Z,83.24
2022-12-27T05:18:16.173Z,83.55
2022-12-27T05:20:38.189Z,83.43
2022-12-27T05:23:18.603Z,83.79
2022-12-27T05:25:43.733Z,83.27
2022-12-27T05:28:09.404Z,82.93
2022-12-27T05:30:37.476Z,83.40
2022-12-27T05:32:59.531Z,83.24
2022-12-27T05:35:21.550Z,82.82
2022-12-27T05:37:43.395Z,83.05
2022-12-27T05:40:06.080Z,82.52
2022-12-27T05:42:28.031Z,82.13
2022-12-27T05:44:49.886Z,82.36
2022-12-27T05:47:11.729Z,82.36
2022-12-27T05:49:33.619Z,82.35
2022-12-27T05:51:55.589Z,81.93
2022-12-27T05:54:17.504Z,82.26
2022-12-27T05:56:39.381Z,82.49
2022-12-27T05:59:01.651Z,82.32
2022-12-27T06:01:23.603Z,82.06
2022-12-27T06:03:45.933Z,82.37
2022-12-27T06:06:09.415Z,82.32
2022-12-27T06:08:32.326Z,82.55
2022-12-27T06:11:22.111Z,82.66
2022-12-27T06:13:50.898Z,83.29
2022-12-27T06:16:13.298Z,82.88
2022-12-27T06:18:38.147Z,83.17
2022-12-27T06:21:10.032Z,83.31
2022-12-27T06:23:34.291Z,83.50
2022-12-27T06:25:56.437Z,83.42
2022-12-27T06:28:18.266Z,83.25
2022-12-27T06:30:40.123Z,83.11
2022-12-27T06:33:01.975Z,83.07
2022-12-27T06:35:23.857Z,83.37
2022-12-27T06:37:45.715Z,82.97
2022-12-27T06:40:08.297Z,82.75
2022-12-27T06:42:31.065Z,82.92
2022-12-27T06:44:52.881Z,82.64
2022-12-27T06:47:14.709Z,82.92
2022-12-27T06:49:36.535Z,82.84
2022-12-27T06:51:59.868Z,83.03
2022-12-27T06:54:22.226Z,83.15
2022-12-27T06:56:44.537Z,83.21
2022-12-27T06:59:08.362Z,83.15
2022-12-27T07:01:30.544Z,83.21
2022-12-27T07:03:59.256Z,83.34
2022-12-27T07:06:23.267Z,83.55
2022-12-27T07:08:45.652Z,83.10
2022-12-27T07:11:12.129Z,83.33
2022-12-27T07:13:40.193Z,83.44
2022-12-27T07:16:08.719Z,83.78
2022-12-27T07:18:30.617Z,83.67
2022-12-27T07:20:52.398Z,83.84
2022-12-27T07:23:19.246Z,83.70
2022-12-27T07:25:41.555Z,84.18
2022-12-27T07:28:03.474Z,84.16
2022-12-27T07:30:25.404Z,83.55
2022-12-27T07:32:47.305Z,83.97
2022-12-27T07:35:09.561Z,83.97
2022-12-27T07:37:32.046Z,83.36
2022-12-27T07:39:53.937Z,83.48
2022-12-27T07:42:15.821Z,83.54
2022-12-27T07:44:38.343Z,83.40
2022-12-27T07:47:00.284Z,83.17
2022-12-27T07:49:22.646Z,83.40
2022-12-27T07:51:44.495Z,83.58
2022-12-27T07:54:06.616Z,83.36
2022-12-27T07:56:29.967Z,83.64
2022-12-27T07:58:52.508Z,83.76
2022-12-27T08:01:17.475Z,83.40
2022-12-27T08:03:41.235Z,83.50
2022-12-27T08:06:04.683Z,83.50
2022-12-27T08:08:38.426Z,83.64
2022-12-27T08:11:05.289Z,84.04
2022-12-27T08:13:27.579Z,83.13
2022-12-27T08:15:52.791Z,83.65
2022-12-27T08:18:14.602Z,83.55
2022-12-27T08:20:37.213Z,83.44
2022-12-27T08:22:59.108Z,83.89
2022-12-27T08:25:21.608Z,83.76
2022-12-27T08:27:43.643Z,83.81
2022-12-27T08:30:06.381Z,84.15
2022-12-27T08:32:28.191Z,84.21
2022-12-27T08:34:50.184Z,84.26
2022-12-27T08:37:12.129Z,84.11
2022-12-27T08:39:34.020Z,84.37
2022-12-27T08:41:56.112Z,84.04
2022-12-27T08:44:17.909Z,83.87
2022-12-27T08:46:39.905Z,84.02
2022-12-27T08:49:02.036Z,84.16
2022-12-27T08:51:34.402Z,84.40
2022-12-27T08:54:00.584Z,84.24
2022-12-27T08:56:22.705Z,84.22
2022-12-27T08:58:44.518Z,84.29
2022-12-27T09:01:08.583Z,84.38
2022-12-27T09:03:31.509Z,84.46
2022-12-27T09:05:53.497Z,84.67
2022-12-27T09:08:17.339Z,84.15
2022-12-27T09:10:39.832Z,84.19
2022-12-27T09:13:01.757Z,84.13
2022-12-27T09:15:23.629Z,84.43
2022-12-27T09:17:45.748Z,84.34
2022-12-27T09:20:09.193Z,84.37
2022-12-27T09:22:31.400Z,84.31
2022-12-27T09:24:53.189Z,84.19
2022-12-27T09:27:15.044Z,83.68
2022-12-27T09:29:38.015Z,84.03
2022-12-27T09:32:02.425Z,83.91
2022-12-27T09:34:24.346Z,83.91
2022-12-27T09:36:46.266Z,83.51
2022-12-27T09:39:10.328Z,83.42
2022-12-27T09:42:53.468Z,83.23
2022-12-27T09:45:35.549Z,82.76
2022-12-27T09:48:04.674Z,82.81
2022-12-27T09:50:51.261Z,82.90
2022-12-27T09:53:21.825Z,82.95
2022-12-27T09:55:49.811Z,83.03
2022-12-27T09:58:11.642Z,82.75
2022-12-27T10:00:36.050Z,82.26
2022-12-27T10:03:01.817Z,82.37
2022-12-27T10:05:34.537Z,82.81
2022-12-27T10:08:08.306Z,81.96
2022-12-27T10:10:53.965Z,82.46
2022-12-27T10:13:28.062Z,81.87
2022-12-27T10:16:36.121Z,82.50
2022-12-27T10:19:15.930Z,82.12
2022-12-27T10:22:00.852Z,81.86
2022-12-27T10:24:46.485Z,81.43
2022-12-27T10:27:24.862Z,81.36
2022-12-27T10:29:53.006Z,81.10
2022-12-27T10:32:16.370Z,81.03
2022-12-27T10:34:38.501Z,81.17
2022-12-27T10:37:00.632Z,80.98
2022-12-27T10:39:32.340Z,80.83
2022-12-27T10:42:13.611Z,80.89
2022-12-27T10:44:35.602Z,80.72
2022-12-27T10:46:57.787Z,80.18
2022-12-27T10:49:22.821Z,79.70
2022-12-27T10:51:45.471Z,79.83
2022-12-27T10:54:19.595Z,79.44
2022-12-27T10:56:44.330Z,79.56
2022-12-27T10:59:29.254Z,79.34
2022-12-27T11:02:19.570Z,78.80
2022-12-27T11:05:01.194Z,79.09
2022-12-27T11:07:23.052Z,79.29
2022-12-27T11:09:50.764Z,78.37
2022-12-27T11:12:29.135Z,78.44
2022-12-27T11:15:05.338Z,77.93
2022-12-27T11:17:38.056Z,77.61
2022-12-27T11:20:09.110Z,77.19
2022-12-27T11:22:31.825Z,77.02
2022-12-27T11:25:00.522Z,77.10
2022-12-27T11:27:29.617Z,76.52
2022-12-27T11:29:55.898Z,76.52
2022-12-27T11:32:20.057Z,76.26
2022-12-27T11:34:49.015Z,76.37
2022-12-27T11:37:19.516Z,76.59
2022-12-27T11:39:52.511Z,76.64
2022-12-27T11:42:46.947Z,76.74
2022-12-27T11:45:17.983Z,77.33
2022-12-27T11:48:09.552Z,76.87
2022-12-27T11:51:12.724Z,77.16
2022-12-27T11:54:14.713Z,77.58
2022-12-27T11:56:51.025Z,77.01
2022-12-27T12:00:07.226Z,77.59
2022-12-27T12:03:18.060Z,77.67
2022-12-27T12:06:02.093Z,77.63
2022-12-27T12:09:00.660Z,77.91
2022-12-27T12:11:55.193Z,78.15
2022-12-27T12:14:32.535Z,78.71
2022-12-27T12:17:14.482Z,78.74
2022-12-27T12:19:58.642Z,78.56
2022-12-27T12:22:30.076Z,78.69
2022-12-27T12:25:22.845Z,78.77
2022-12-27T12:28:01.022Z,78.94
2022-12-27T12:30:52.718Z,78.95
2022-12-27T12:33:54.345Z,79.22
2022-12-27T12:36:34.844Z,78.84
2022-12-27T12:39:34.078Z,79.05
2022-12-27T12:42:08.641Z,78.31
2022-12-27T12:44:58.477Z,78.67
2022-12-27T12:47:29.263Z,78.00
2022-12-27T12:50:26.914Z,78.08
2022-12-27T12:53:17.732Z,78.04
2022-12-27T12:56:11.792Z,77.80
2022-12-27T12:59:21.192Z,77.97
2022-12-27T13:02:06.116Z,78.25
2022-12-27T13:05:05.686Z,77.32
2022-12-27T13:07:49.481Z,77.12
2022-12-27T13:10:51.126Z,76.79
2022-12-27T13:13:54.553Z,77.17
2022-12-27T13:16:57.331Z,76.56
2022-12-27T13:20:03.866Z,75.98
2022-12-27T13:23:13.124Z,76.20
2022-12-27T13:26:08.487Z,75.65
2022-12-27T13:29:14.420Z,75.88
2022-12-27T13:31:57.422Z,76.20
2022-12-27T13:35:02.986Z,75.97
2022-12-27T13:38:01.568Z,75.65
2022-12-27T13:40:53.735Z,75.76
2022-12-27T13:43:47.325Z,75.60
2022-12-27T13:46:42.911Z,75.68
2022-12-27T13:49:48.271Z,75.55
2022-12-27T13:52:59.508Z,75.42
2022-12-27T13:55:49.947Z,75.01
2022-12-27T13:59:16.236Z,75.18
2022-12-27T14:02:20.555Z,75.27
2022-12-27T14:04:59.049Z,75.66
2022-12-27T14:08:10.775Z,75.28
2022-12-27T14:10:52.786Z,75.79
2022-12-27T14:13:44.197Z,75.61
2022-12-27T14:16:30.331Z,76.10
2022-12-27T14:18:55.091Z,76.19
2022-12-27T14:22:02.611Z,76.28
2022-12-27T14:25:29.277Z,76.60
2022-12-27T14:28:13.599Z,76.75
2022-12-27T14:31:25.836Z,76.78
2022-12-27T14:34:03.052Z,77.25
2022-12-27T14:37:11.680Z,77.10
2022-12-27T14:40:00.127Z,77.53
2022-12-27T14:43:04.831Z,77.22
2022-12-27T14:45:53.805Z,77.22
2022-12-27T14:48:46.967Z,77.21
2022-12-27T14:51:58.411Z,77.92
2022-12-27T14:54:40.526Z,77.71
2022-12-27T14:57:34.114Z,77.87
2022-12-27T15:00:14.938Z,77.99
2022-12-27T15:02:58.336Z,78.18
2022-12-27T15:05:27.903Z,78.41
2022-12-27T15:08:17.449Z,78.36
2022-12-27T15:11:29.082Z,78.17
2022-12-27T15:14:05.844Z,78.54
2022-12-27T15:16:51.778Z,78.20
2022-12-27T15:20:06.664Z,78.37
2022-12-27T15:22:54.799Z,78.34
2022-12-27T15:25:25.801Z,78.33
2022-12-27T15:28:29.016Z,78.75
2022-12-27T15:31:08.852Z,78.55
2022-12-27T15:33:52.904Z,78.61
2022-12-27T15:36:18.963Z,79.07
2022-12-27T15:38:54.739Z,79.15
2022-12-27T15:41:55.080Z,78.77
2022-12-27T15:44:54.851Z,79.02
2022-12-27T15:47:34.856Z,79.20
2022-12-27T15:50:18.070Z,79.66
2022-12-27T15:52:54.927Z,79.46
2022-12-27T15:55:46.799Z,79.77
2022-12-27T15:58:22.788Z,79.28
2022-12-27T16:00:46.591Z,79.51
2022-12-27T16:03:39.356Z,79.32
2022-12-27T16:06:03.153Z,79.08
2022-12-27T16:08:31.951Z,79.44
2022-12-27T16:10:55.254Z,79.68
2022-12-27T16:13:44.767Z,80.20
2022-12-27T16:16:14.397Z,79.82
2022-12-27T16:19:23.823Z,79.97
2022-12-27T16:21:47.042Z,79.99
2022-12-27T16:24:22.502Z,79.65
2022-12-27T16:27:01.320Z,80.52
2022-12-27T16:29:32.562Z,80.52
2022-12-27T16:32:24.411Z,80.25
2022-12-27T16:34:51.741Z,81.35
2022-12-27T16:37:30.331Z,80.84
2022-12-27T16:40:37.899Z,80.89
2022-12-27T16:43:19.945Z,80.90
2022-12-27T16:46:20.868Z,80.65
2022-12-27T16:49:04.110Z,80.48
2022-12-27T16:51:57.272Z,80.76
2022-12-27T16:54:28.395Z,80.52
2022-12-27T16:56:50.358Z,80.15
2022-12-27T17:00:13.210Z,80.17
2022-12-27T17:02:38.781Z,80.04
2022-12-27T17:05:01.264Z,79.95
2022-12-27T17:07:45.102Z,80.14
2022-12-27T17:10:25.210Z,80.04
2022-12-27T17:12:55.554Z,80.04
2022-12-27T17:15:17.723Z,79.66
2022-12-27T17:17:40.053Z,80.03
2022-12-27T17:20:14.223Z,79.96
2022-12-27T17:22:39.506Z,79.79
2022-12-27T17:25:15.727Z,80.24
2022-12-27T17:27:59.940Z,79.87
2022-12-27T17:30:44.863Z,79.98
2022-12-27T17:33:51.924Z,80.20
2022-12-27T17:36:29.940Z,79.94
2022-12-27T17:39:06.256Z,79.66
2022-12-27T17:42:25.191Z,79.85
2022-12-27T17:45:13.974Z,80.26
2022-12-27T17:47:53.354Z,79.69
2022-12-27T17:50:23.915Z,79.41
2022-12-27T17:53:24.790Z,79.73
2022-12-27T17:56:30.752Z,79.35
2022-12-27T17:58:58.055Z,79.44
2022-12-27T18:01:21.740Z,80.29
2022-12-27T18:03:48.296Z,79.60
2022-12-27T18:06:12.129Z,79.31
2022-12-27T18:08:34.978Z,79.33
2022-12-27T18:10:59.215Z,79.56
2022-12-27T18:13:26.418Z,79.00
2022-12-27T18:15:50.821Z,79.43
2022-12-27T18:18:21.139Z,79.55
2022-12-27T18:20:43.540Z,79.19
2022-12-27T18:23:06.156Z,79.80
2022-12-27T18:25:48.431Z,79.23
2022-12-27T18:28:32.541Z,79.29
2022-12-27T18:31:26.814Z,79.16
2022-12-27T18:34:23.620Z,78.89
2022-12-27T18:36:59.132Z,78.91
2022-12-27T18:39:28.288Z,79.31
2022-12-27T18:41:53.481Z,79.10
2022-12-27T18:44:26.518Z,78.80
2022-12-27T18:46:53.828Z,78.78
2022-12-27T18:49:37.181Z,78.58
2022-12-27T18:52:00.348Z,78.63
2022-12-27T18:54:28.584Z,78.24
2022-12-27T18:56:56.097Z,78.92
2022-12-27T18:59:17.886Z,78.60
2022-12-27T19:01:43.410Z,78.26
2022-12-27T19:04:17.314Z,78.23
2022-12-27T19:06:39.761Z,77.90
2022-12-27T19:09:01.892Z,77.97
2022-12-27T19:11:33.106Z,78.11
2022-12-27T19:14:01.348Z,77.33
2022-12-27T19:16:29.441Z,77.32
2022-12-27T19:18:56.331Z,76.95
2022-12-27T19:21:18.438Z,76.99
2022-12-27T19:23:49.133Z,77.17
2022-12-27T19:26:16.996Z,76.87
2022-12-27T19:28:39.433Z,77.34
2022-12-27T19:31:20.628Z,77.02
2022-12-27T19:33:48.660Z,76.91
2022-12-27T19:36:10.961Z,77.24
2022-12-27T19:38:34.558Z,77.64
2022-12-27T19:41:03.862Z,77.32
2022-12-27T19:43:30.385Z,76.97
2022-12-27T19:45:52.637Z,76.95
2022-12-27T19:48:14.516Z,77.38
2022-12-27T19:50:52.814Z,76.70
2022-12-27T19:53:23.532Z,77.49
2022-12-27T19:55:45.716Z,77.14
2022-12-27T19:58:29.559Z,76.86
2022-12-27T20:00:52.389Z,77.08
2022-12-27T20:03:14.316Z,77.28
2022-12-27T20:06:13.952Z,77.01
2022-12-27T20:08:46.088Z,77.48
2022-12-27T20:11:16.917Z,77.16
2022-12-27T20:13:38.803Z,76.86
2022-12-27T20:16:01.138Z,77.19
2022-12-27T20:18:24.814Z,77.45
2022-12-27T20:20:48.064Z,77.14
2022-12-27T20:23:10.361Z,77.38
2022-12-27T20:25:33.775Z,77.25
2022-12-27T20:27:55.787Z,76.98
2022-12-27T20:30:17.705Z,77.16
2022-12-27T20:32:39.785Z,76.82
2022-12-27T20:35:01.625Z,77.49
2022-12-27T20:37:24.935Z,77.54
2022-12-27T20:39:47.053Z,77.25
2022-12-27T20:42:08.988Z,77.03
2022-12-27T20:44:30.921Z,77.26
2022-12-27T20:46:52.982Z,77.43
2022-12-27T20:49:14.889Z,77.39
2022-12-27T20:51:37.367Z,77.80
2022-12-27T20:54:02.762Z,77.68
2022-12-27T20:56:25.496Z,77.25
2022-12-27T20:58:47.385Z,77.39
2022-12-27T21:01:13.345Z,76.95
2022-12-27T21:03:37.703Z,77.38
2022-12-27T21:06:09.046Z,77.36
2022-12-27T21:08:35.054Z,77.39
2022-12-27T21:11:14.220Z,77.29
2022-12-27T21:13:41.439Z,76.96
2022-12-27T21:16:03.604Z,77.68
2022-12-27T21:18:25.678Z,77.38
2022-12-27T21:20:47.567Z,77.83
2022-12-27T21:23:09.523Z,77.28
2022-12-27T21:25:32.769Z,77.80
2022-12-27T21:27:54.609Z,77.38
2022-12-27T21:30:16.466Z,77.91
2022-12-27T21:32:38.451Z,77.63
2022-12-27T21:35:00.291Z,77.37
2022-12-27T21:37:22.197Z,77.35
2022-12-27T21:39:44.065Z,77.47
2022-12-27T21:42:06.060Z,77.29
2022-12-27T21:44:29.851Z,77.21
2022-12-27T21:46:51.710Z,77.30
2022-12-27T21:49:13.973Z,77.68
2022-12-27T21:51:37.808Z,77.12
2022-12-27T21:54:00.760Z,77.39
2022-12-27T21:56:24.158Z,77.39
2022-12-27T21:58:47.226Z,78.14
2022-12-27T22:01:31.104Z,77.68
2022-12-27T22:04:12.872Z,77.66
2022-12-27T22:06:46.398Z,78.12
2022-12-27T22:09:11.358Z,78.11
2022-12-27T22:11:36.347Z,78.10
2022-12-27T22:13:59.323Z,78.13
2022-12-27T22:16:25.739Z,78.09
2022-12-27T22:18:49.017Z,77.82
2022-12-27T22:21:18.124Z,77.95
2022-12-27T22:23:43.804Z,77.67
2022-12-27T22:26:31.331Z,78.28
2022-12-27T22:28:53.713Z,78.47
2022-12-27T22:31:20.773Z,78.16
2022-12-27T22:33:43.333Z,78.69
2022-12-27T22:36:09.325Z,78.52
2022-12-27T22:38:32.991Z,78.34
2022-12-27T22:40:54.812Z,78.75
2022-12-27T22:43:16.892Z,78.50
2022-12-27T22:45:42.548Z,78.06
2022-12-27T22:48:07.260Z,78.98
2022-12-27T22:50:29.120Z,78.73
2022-12-27T22:52:51.017Z,79.13
2022-12-27T22:55:15.724Z,79.23
2022-12-27T22:57:37.847Z,79.15
2022-12-27T22:59:59.692Z,78.72
2022-12-27T23:02:21.703Z,78.60
2022-12-27T23:04:44.478Z,78.83
2022-12-27T23:07:06.762Z,79.13
2022-12-27T23:09:29.418Z,79.15
2022-12-27T23:11:51.229Z,78.88
2022-12-27T23:14:16.738Z,78.61
2022-12-27T23:16:45.486Z,79.26
2022-12-27T23:19:08.814Z,79.28
2022-12-27T23:21:30.649Z,79.11
2022-12-27T23:23:52.820Z,78.62
2022-12-27T23:26:22.303Z,79.22
2022-12-27T23:28:46.944Z,79.17
2022-12-27T23:31:11.163Z,78.80
2022-12-27T23:33:34.099Z,79.25
2022-12-27T23:35:56.273Z,79.49
2022-12-27T23:38:18.098Z,79.47
2022-12-27T23:40:40.048Z,79.51
2022-12-27T23:43:18.748Z,79.32
2022-12-27T23:45:43.955Z,79.46
2022-12-27T23:48:06.126Z,79.73
2022-12-27T23:50:28.000Z,79.77
2022-12-27T23:52:49.883Z,80.16
2022-12-27T23:55:12.225Z,80.45
2022-12-27T23:57:34.028Z,80.20
2022-12-27T23:59:56.019Z,80.44
